Time;durP1;ratioP1;P1;durP2;ratioP2;P2;SDS_P1;SDS_P2;PMS_P1;PMS_P2;Temp;Humidity;BMP_temperature;BMP_pressure;BME280_temperature;BME280_humidity;BME280_pressure;Samples;Min_cycle;Max_cycle;Signal;HPM_P1;HPM_P2
2022/05/11 00:00:51;;;;;;;1.45;0.40;;;;;;;18.73;33.29;101662.81;4953284;29;20047;-71
2022/05/11 00:03:21;;;;;;;1.05;0.47;;;;;;;18.90;33.36;101669.13;4952296;29;20146;-71
2022/05/11 00:05:50;;;;;;;0.73;0.30;;;;;;;18.90;33.07;101666.53;4952516;28;20055;-72
2022/05/11 00:08:19;;;;;;;2.53;0.50;;;;;;;18.96;32.64;101665.69;4951908;29;20086;-72
2022/05/11 00:10:47;;;;;;;2.90;0.30;;;;;;;18.91;32.51;101667.38;4951192;29;20095;-72
2022/05/11 00:13:16;;;;;;;0.30;0.30;;;;;;;18.82;31.76;101660.31;4951125;29;20106;-71
2022/05/11 00:15:44;;;;;;;2.05;0.60;;;;;;;18.77;33.38;101665.50;4952056;29;20054;-70
2022/05/11 00:18:13;;;;;;;0.60;0.40;;;;;;;18.57;32.28;101657.38;4952547;29;20102;-72
2022/05/11 00:20:43;;;;;;;0.70;0.40;;;;;;;18.29;33.03;101666.69;4951177;28;20116;-71
2022/05/11 00:23:11;;;;;;;2.03;0.85;;;;;;;18.14;33.53;101656.91;4951330;29;20055;-71
2022/05/11 00:25:40;;;;;;;3.65;1.27;;;;;;;18.24;34.69;101667.50;4951281;29;20047;-71
2022/05/11 00:28:08;;;;;;;4.32;1.40;;;;;;;18.21;34.05;101657.88;4951614;29;20168;-72
2022/05/11 00:30:37;;;;;;;1.77;0.30;;;;;;;18.16;34.83;101657.81;4952305;29;20051;-73
2022/05/11 00:33:06;;;;;;;0.75;0.40;;;;;;;18.13;34.28;101659.50;4954535;29;20047;-72
2022/05/11 00:35:35;;;;;;;0.93;0.40;;;;;;;18.07;34.83;101665.50;4952430;29;20138;-71
2022/05/11 00:38:06;;;;;;;2.95;0.88;;;;;;;17.98;34.39;101665.38;4950886;29;20137;-72
2022/05/11 00:40:40;;;;;;;11.80;2.58;;;;;;;17.90;35.37;101661.81;4951442;29;20091;-72
2022/05/11 00:43:09;;;;;;;1.10;0.40;;;;;;;17.84;34.12;101666.94;4950049;29;20055;-73
2022/05/11 00:45:40;;;;;;;0.80;0.38;;;;;;;17.78;34.70;101667.72;4951063;29;20134;-71
2022/05/11 00:50:55;;;;;;;1.23;0.65;;;;;;;17.64;35.42;101657.06;4950524;29;20549;-72
2022/05/11 00:53:25;;;;;;;2.72;0.40;;;;;;;17.55;35.15;101660.41;4950459;28;20134;-72
2022/05/11 00:56:00;;;;;;;1.35;0.52;;;;;;;17.51;36.04;101658.59;4951659;29;20086;-72
2022/05/11 00:58:34;;;;;;;0.73;0.30;;;;;;;17.45;36.08;101668.06;4951144;29;20134;-73
2022/05/11 01:01:04;;;;;;;0.30;0.30;;;;;;;17.35;36.68;101660.09;4951324;29;20770;-72
2022/05/11 01:03:36;;;;;;;1.45;0.35;;;;;;;17.33;36.48;101658.31;4950914;29;20456;-72
2022/05/11 01:06:04;;;;;;;0.77;0.50;;;;;;;17.30;36.58;101664.38;4951705;28;20580;-75
2022/05/11 01:08:35;;;;;;;0.60;0.40;;;;;;;17.26;36.79;101657.31;4951182;28;20047;-74
2022/05/11 01:11:05;;;;;;;1.67;0.40;;;;;;;17.24;36.29;101664.25;4950738;29;20079;-75
2022/05/11 01:13:34;;;;;;;1.98;0.40;;;;;;;17.21;36.34;101665.97;4951160;29;20102;-73
2022/05/11 01:16:03;;;;;;;2.08;0.40;;;;;;;17.17;36.66;101658.03;4951551;29;20051;-73
2022/05/11 01:18:33;;;;;;;1.35;0.50;;;;;;;17.16;35.87;101658.03;4951180;29;20055;-75
2022/05/11 01:21:04;;;;;;;0.95;0.30;;;;;;;17.12;37.07;101657.09;4951025;29;20126;-72
2022/05/11 01:23:45;;;;;;;0.33;0.33;;;;;;;17.08;37.74;101662.25;4943520;29;20086;-75
2022/05/11 01:26:17;;;;;;;0.57;0.40;;;;;;;17.00;36.51;101658.63;4954085;29;20062;-74
2022/05/11 01:28:47;;;;;;;3.05;0.70;;;;;;;16.94;35.81;101659.38;4952054;29;20055;-75
2022/05/11 01:31:18;;;;;;;1.00;0.50;;;;;;;16.93;36.47;101655.91;4950713;29;20082;-74
2022/05/11 01:33:49;;;;;;;0.63;0.50;;;;;;;16.95;36.22;101654.19;4950593;29;20055;-73
2022/05/11 01:36:25;;;;;;;1.63;0.50;;;;;;;17.02;36.18;101664.75;4948663;29;20504;-73
2022/05/11 01:38:57;;;;;;;0.50;0.30;;;;;;;17.07;36.79;101661.38;4948480;29;20047;-74
2022/05/11 01:41:32;;;;;;;0.60;0.30;;;;;;;17.08;37.47;101654.41;4948858;29;20053;-73
2022/05/11 01:44:01;;;;;;;1.67;0.40;;;;;;;17.12;36.31;101657.09;4949380;29;20048;-72
2022/05/11 01:46:30;;;;;;;1.27;0.47;;;;;;;17.20;36.11;101656.34;4949017;29;20149;-71
2022/05/11 01:48:59;;;;;;;1.70;0.40;;;;;;;17.26;36.42;101657.31;4949417;29;20051;-72
2022/05/11 01:51:27;;;;;;;2.20;0.60;;;;;;;17.21;36.03;101653.75;4950339;29;20055;-72
2022/05/11 01:53:56;;;;;;;1.17;0.50;;;;;;;17.24;36.89;101658.16;4950492;29;20473;-72
2022/05/11 01:56:27;;;;;;;0.30;0.30;;;;;;;17.27;37.60;101661.72;4950400;28;20143;-73
2022/05/11 01:58:56;;;;;;;1.10;0.40;;;;;;;17.32;36.71;101662.66;4950525;29;20517;-73
2022/05/11 02:01:27;;;;;;;0.40;0.30;;;;;;;17.33;37.68;101660.91;4949917;29;20460;-73
2022/05/11 02:03:56;;;;;;;0.75;0.30;;;;;;;17.32;36.28;101657.44;4950196;28;20130;-73
2022/05/11 02:09:10;;;;;;;1.02;0.38;;;;;;;17.19;38.47;101660.69;4954797;29;20066;-73
2022/05/11 02:11:40;;;;;;;1.20;0.30;;;;;;;17.09;39.15;101664.03;4954255;29;20051;-73
2022/05/11 02:14:09;;;;;;;0.88;0.40;;;;;;;16.93;39.16;101668.09;4954667;29;20105;-73
2022/05/11 02:16:37;;;;;;;3.25;0.57;;;;;;;16.79;40.68;101672.13;4953808;29;20055;-72
2022/05/11 02:19:06;;;;;;;1.55;0.50;;;;;;;16.67;40.29;101675.41;4954567;29;20047;-73
2022/05/11 02:21:34;;;;;;;1.42;0.50;;;;;;;16.58;41.22;101677.84;4958839;29;20102;-73
2022/05/11 02:24:03;;;;;;;1.40;0.40;;;;;;;16.49;41.99;101679.44;4955759;29;20055;-72
2022/05/11 02:26:32;;;;;;;0.82;0.50;;;;;;;16.45;42.19;101688.06;4937287;29;20142;-73
2022/05/11 02:29:02;;;;;;;0.90;0.60;;;;;;;16.37;43.58;101680.91;4954754;29;20490;-73
2022/05/11 02:31:30;;;;;;;0.47;0.40;;;;;;;16.30;43.62;101690.34;4954710;29;20055;-72
2022/05/11 02:34:02;;;;;;;1.25;0.57;;;;;;;16.22;43.94;101691.94;4954387;29;20501;-72
2022/05/11 02:36:32;;;;;;;1.13;0.65;;;;;;;16.16;44.84;101689.19;4953710;29;20055;-74
2022/05/11 02:39:01;;;;;;;1.50;0.50;;;;;;;16.12;45.58;101701.28;4954076;29;20050;-73
2022/05/11 02:41:29;;;;;;;2.58;0.75;;;;;;;16.03;45.06;101696.72;4953303;29;20705;-72
2022/05/11 02:43:57;;;;;;;1.05;0.40;;;;;;;16.03;45.96;101706.28;4953714;28;20086;-74
2022/05/11 02:46:27;;;;;;;1.60;0.63;;;;;;;15.95;44.59;101708.75;4953156;29;20058;-73
2022/05/11 02:48:56;;;;;;;2.53;0.80;;;;;;;15.92;45.23;101713.91;4953835;29;20119;-72
2022/05/11 02:51:24;;;;;;;6.43;1.27;;;;;;;15.85;43.78;101715.50;4953837;29;20676;-73
2022/05/11 02:53:53;;;;;;;32.22;5.10;;;;;;;15.78;43.76;101712.69;4953865;29;20659;-73
2022/05/11 02:56:21;;;;;;;7.10;1.42;;;;;;;15.74;43.35;101714.34;4953752;29;20047;-74
2022/05/11 02:58:50;;;;;;;7.22;1.70;;;;;;;15.72;43.95;101715.16;4953470;29;20047;-74
2022/05/11 03:01:18;;;;;;;1.33;0.60;;;;;;;15.67;43.18;101721.13;4953377;29;20090;-74
2022/05/11 03:03:49;;;;;;;4.38;0.85;;;;;;;15.63;44.45;101726.22;4952898;29;20134;-74
2022/05/11 03:06:17;;;;;;;1.00;0.60;;;;;;;15.59;45.04;101720.03;4953625;28;20056;-74
2022/05/11 03:08:45;;;;;;;0.85;0.47;;;;;;;15.56;44.59;101730.41;4953633;29;20044;-75
2022/05/11 03:11:14;;;;;;;2.25;0.80;;;;;;;15.42;45.42;101719.63;4953152;29;20059;-75
2022/05/11 03:13:42;;;;;;;1.17;0.50;;;;;;;15.43;46.55;101741.38;4953731;29;20043;-77
2022/05/11 03:16:11;;;;;;;1.95;0.50;;;;;;;15.36;47.58;101742.06;4956250;28;20047;-75
2022/05/11 03:18:40;;;;;;;4.07;0.88;;;;;;;15.25;48.40;101758.28;4953907;29;20051;-74
2022/05/11 03:21:10;;;;;;;1.98;0.40;;;;;;;15.12;50.25;101761.44;4953650;29;20138;-75
2022/05/11 03:23:38;;;;;;;1.17;0.50;;;;;;;15.00;53.07;101771.53;4952713;29;20115;-73
2022/05/11 03:26:06;;;;;;;0.93;0.50;;;;;;;14.85;53.00;101767.66;4953277;29;20147;-75
2022/05/11 03:28:35;;;;;;;1.13;0.55;;;;;;;14.75;54.22;101778.66;4952726;29;20106;-74
2022/05/11 03:31:03;;;;;;;1.42;0.50;;;;;;;14.59;55.12;101784.25;4953379;29;20051;-74
2022/05/11 03:36:19;;;;;;;2.78;0.52;;;;;;;14.32;56.28;101787.78;4952647;28;20066;-73
2022/05/11 03:38:47;;;;;;;0.77;0.40;;;;;;;14.18;56.86;101784.75;4952945;29;20047;-72
2022/05/11 03:41:15;;;;;;;0.85;0.38;;;;;;;14.04;58.38;101786.91;4952624;29;20047;-73
2022/05/11 03:43:44;;;;;;;3.13;0.43;;;;;;;13.93;60.10;101793.50;4952500;29;20058;-73
2022/05/11 03:46:13;;;;;;;1.25;0.63;;;;;;;13.81;61.35;101799.19;4952790;29;20063;-73
2022/05/11 03:48:41;;;;;;;2.03;0.45;;;;;;;13.70;63.02;101799.63;4952934;29;20175;-72
2022/05/11 03:51:11;;;;;;;1.63;0.90;;;;;;;13.58;62.84;101805.31;4952534;29;20051;-73
2022/05/11 03:53:41;;;;;;;1.50;0.40;;;;;;;13.49;63.68;101815.41;4952767;29;20130;-72
2022/05/11 03:56:10;;;;;;;1.05;0.38;;;;;;;13.38;63.98;101826.31;4952960;29;20056;-73
2022/05/11 03:58:38;;;;;;;2.33;0.57;;;;;;;13.31;65.80;101826.94;4952335;29;20085;-73
2022/05/11 04:01:07;;;;;;;1.50;0.50;;;;;;;13.24;67.22;101834.41;4951938;29;20043;-71
2022/05/11 04:03:35;;;;;;;1.60;0.70;;;;;;;13.16;68.25;101828.94;4951750;29;20051;-72
2022/05/11 04:06:04;;;;;;;1.08;0.43;;;;;;;13.08;67.78;101833.88;4952252;28;20466;-71
2022/05/11 04:08:33;;;;;;;1.98;0.50;;;;;;;13.02;68.90;101836.25;4952787;29;20145;-72
2022/05/11 04:11:03;;;;;;;1.80;0.57;;;;;;;12.97;69.76;101840.41;4955830;29;20107;-72
2022/05/11 04:13:31;;;;;;;1.27;0.50;;;;;;;12.91;68.88;101841.03;4953579;29;20122;-73
2022/05/11 04:16:00;;;;;;;3.05;0.75;;;;;;;12.88;68.95;101840.06;4953075;29;20102;-73
2022/05/11 04:18:28;;;;;;;0.77;0.50;;;;;;;12.82;67.66;101839.81;4952807;29;20048;-73
2022/05/11 04:20:57;;;;;;;0.75;0.50;;;;;;;12.76;70.96;101841.38;4952325;29;20091;-74
2022/05/11 04:23:25;;;;;;;0.55;0.50;;;;;;;12.72;71.35;101849.84;4951787;29;20106;-75
2022/05/11 04:25:53;;;;;;;2.50;1.10;;;;;;;12.61;74.83;101851.16;4952940;29;20082;-72
2022/05/11 04:28:24;;;;;;;0.82;0.38;;;;;;;12.46;74.29;101854.06;4951225;28;20540;-74
2022/05/11 04:30:52;;;;;;;2.35;0.50;;;;;;;12.38;76.75;101863.22;4952691;29;20130;-75
2022/05/11 04:33:21;;;;;;;1.05;0.40;;;;;;;12.35;76.99;101855.34;4951722;29;20106;-75
2022/05/11 04:35:49;;;;;;;1.83;0.90;;;;;;;12.30;76.73;101855.16;4951921;29;20106;-74
2022/05/11 04:38:18;;;;;;;2.40;0.60;;;;;;;12.27;77.68;101849.81;4951754;29;20043;-73
2022/05/11 04:40:46;;;;;;;2.30;0.60;;;;;;;12.21;77.85;101849.59;4951662;29;20047;-75
2022/05/11 04:43:14;;;;;;;1.08;0.50;;;;;;;12.15;77.51;101854.53;4952043;29;20091;-75
2022/05/11 04:45:46;;;;;;;0.57;0.40;;;;;;;12.11;76.85;101855.22;4951221;29;20062;-75
2022/05/11 04:48:16;;;;;;;3.03;0.70;;;;;;;12.04;76.83;101850.59;4951709;29;20051;-72
2022/05/11 04:50:46;;;;;;;1.75;0.52;;;;;;;11.94;76.67;101859.72;4951810;29;20054;-73
2022/05/11 04:53:16;;;;;;;2.25;0.60;;;;;;;11.88;76.93;101865.53;4951487;29;20055;-75
2022/05/11 04:55:47;;;;;;;1.92;0.50;;;;;;;11.82;78.58;101847.09;4951649;29;20055;-75
2022/05/11 04:58:15;;;;;;;1.95;0.77;;;;;;;11.73;78.64;101846.72;4951432;29;20729;-75
2022/05/11 05:00:45;;;;;;;2.97;0.63;;;;;;;11.72;79.99;101873.44;4951251;29;20075;-72
2022/05/11 05:03:15;;;;;;;7.30;0.85;;;;;;;11.51;84.36;101853.56;4951001;29;20059;-73
2022/05/11 05:05:44;;;;;;;1.40;0.63;;;;;;;11.45;81.22;101874.06;4951806;28;20501;-74
2022/05/11 05:08:13;;;;;;;0.95;0.50;;;;;;;11.39;89.11;101878.06;4954952;29;20493;-74
2022/05/11 05:10:42;;;;;;;1.05;0.57;;;;;;;11.40;86.04;101885.91;4951414;29;20509;-73
2022/05/11 05:13:13;;;;;;;1.95;0.60;;;;;;;11.39;84.98;101891.91;4950642;29;20051;-73
2022/05/11 05:15:44;;;;;;;0.50;0.40;;;;;;;11.36;85.95;101886.59;4950391;29;20047;-74
2022/05/11 05:18:21;;;;;;;1.98;0.47;;;;;;;11.38;87.57;101897.00;4951059;29;20749;-73
2022/05/11 05:20:50;;;;;;;2.30;0.80;;;;;;;11.34;84.13;101896.00;4951284;29;20082;-73
2022/05/11 05:23:18;;;;;;;0.35;0.30;;;;;;;11.25;84.32;101886.13;4949963;29;20529;-73
2022/05/11 05:25:46;;;;;;;3.92;0.40;;;;;;;11.19;77.61;101890.13;4950774;29;20137;-73
2022/05/11 05:31:09;;;;;;;0.95;0.65;;;;;;;11.09;78.46;101894.91;4951144;29;20054;-74
2022/05/11 05:33:40;;;;;;;1.17;0.57;;;;;;;11.07;81.87;101891.34;4951094;29;20051;-73
2022/05/11 05:36:09;;;;;;;0.98;0.43;;;;;;;11.06;79.43;101893.84;4950452;29;20086;-73
2022/05/11 05:38:38;;;;;;;5.43;0.95;;;;;;;11.04;77.32;101893.81;4950629;28;20082;-74
2022/05/11 05:41:07;;;;;;;2.15;0.82;;;;;;;10.99;75.66;101892.69;4950800;29;20421;-74
2022/05/11 05:43:35;;;;;;;1.75;0.88;;;;;;;10.96;75.66;101891.69;4950421;29;20087;-74
2022/05/11 05:46:06;;;;;;;4.18;0.75;;;;;;;10.90;76.32;101888.00;4950892;29;20051;-74
2022/05/11 05:48:35;;;;;;;0.93;0.30;;;;;;;10.85;72.84;101888.59;4950454;29;20146;-73
2022/05/11 05:51:05;;;;;;;0.95;0.32;;;;;;;10.74;78.34;101889.78;4951092;29;20446;-74
2022/05/11 05:53:34;;;;;;;1.30;0.45;;;;;;;10.60;75.32;101894.31;4950562;29;20098;-73
2022/05/11 05:56:03;;;;;;;1.33;0.60;;;;;;;10.48;80.00;101887.72;4950973;29;20138;-73
2022/05/11 05:58:32;;;;;;;3.40;0.88;;;;;;;10.44;82.14;101897.84;4950955;29;20082;-73
2022/05/11 06:01:00;;;;;;;1.40;0.95;;;;;;;10.41;78.95;101897.72;4950683;29;20115;-73
2022/05/11 06:03:32;;;;;;;0.75;0.40;;;;;;;10.39;76.21;101899.34;4950662;29;20528;-74
2022/05/11 06:06:14;;;;;;;1.07;0.30;;;;;;;10.38;75.80;101900.16;4953719;28;20066;-74
2022/05/11 06:08:42;;;;;;;3.88;0.70;;;;;;;10.38;76.05;101902.75;4951458;29;20333;-73
2022/05/11 06:11:11;;;;;;;0.47;0.30;;;;;;;10.37;76.89;101903.56;4950047;29;20047;-74
2022/05/11 06:13:41;;;;;;;5.57;0.82;;;;;;;10.36;80.98;101902.69;4950277;29;20047;-73
2022/05/11 06:16:15;;;;;;;0.35;0.30;;;;;;;10.35;81.11;101900.00;4950400;29;20145;-74
2022/05/11 06:18:47;;;;;;;3.30;0.80;;;;;;;10.29;77.32;101900.59;4950255;29;20634;-74
2022/05/11 06:21:16;;;;;;;2.43;0.40;;;;;;;10.24;77.82;101908.09;4949445;29;20047;-75
2022/05/11 06:23:45;;;;;;;1.30;0.93;;;;;;;10.22;78.31;101904.56;4949903;29;20308;-74
2022/05/11 06:26:16;;;;;;;1.45;0.40;;;;;;;10.20;78.35;101911.34;4949930;29;20074;-74
2022/05/11 06:28:46;;;;;;;3.30;0.70;;;;;;;10.20;79.59;101902.72;4950116;29;20051;-72
2022/05/11 06:31:15;;;;;;;2.95;0.50;;;;;;;10.20;79.75;101910.47;4950038;29;20130;-73
2022/05/11 06:33:49;;;;;;;1.73;0.43;;;;;;;10.18;80.13;101918.13;4950291;29;20073;-73
2022/05/11 06:36:18;;;;;;;2.90;0.60;;;;;;;10.16;81.24;101924.06;4949904;29;20062;-74
2022/05/11 06:38:46;;;;;;;1.08;0.60;;;;;;;10.03;88.57;101922.53;4950324;29;20051;-73
2022/05/11 06:41:17;;;;;;;3.20;0.77;;;;;;;9.94;90.09;101927.25;4950233;29;20056;-72
2022/05/11 06:43:46;;;;;;;1.15;0.50;;;;;;;9.93;90.18;101930.66;4950542;29;20051;-73
2022/05/11 06:46:15;;;;;;;4.35;0.70;;;;;;;9.93;91.66;101930.66;4950204;29;20106;-72
2022/05/11 06:48:45;;;;;;;2.13;0.50;;;;;;;9.93;92.31;101933.25;4950276;29;20485;-72
2022/05/11 06:51:14;;;;;;;4.00;1.15;;;;;;;9.93;92.75;101931.53;4952270;28;20051;-72
2022/05/11 06:59:22;;;;;;;2.47;0.50;;;;;;;9.95;95.24;101926.44;4954371;29;20082;-72
2022/05/11 07:01:50;;;;;;;2.65;0.60;;;;;;;10.01;95.56;101934.50;4954482;29;20051;-72
2022/05/11 07:04:22;;;;;;;1.65;0.77;;;;;;;10.03;89.88;101935.47;4955717;29;20102;-72
2022/05/11 07:06:52;;;;;;;5.37;1.00;;;;;;;10.05;87.90;101939.03;4954048;28;20130;-73
2022/05/11 07:09:20;;;;;;;2.30;0.70;;;;;;;10.06;91.79;101938.22;4953450;29;20071;-73
2022/05/11 07:14:35;;;;;;;1.27;0.43;;;;;;;10.00;100.00;101938.78;4953523;29;20066;-72
2022/05/11 07:17:03;;;;;;;1.65;0.45;;;;;;;9.95;100.00;101934.22;4953491;29;20055;-73
2022/05/11 07:19:33;;;;;;;0.90;0.47;;;;;;;9.85;100.00;101927.69;4953185;29;20055;-73
2022/05/11 07:22:03;;;;;;;2.08;0.68;;;;;;;9.78;100.00;101930.75;4952971;29;20072;-72
2022/05/11 07:24:32;;;;;;;6.07;0.75;;;;;;;9.74;100.00;101932.31;4953272;29;20804;-72
2022/05/11 07:27:00;;;;;;;1.25;0.40;;;;;;;9.68;100.00;101934.56;4952891;29;20059;-71
2022/05/11 07:29:29;;;;;;;2.53;0.45;;;;;;;9.60;100.00;101925.53;4953086;29;20075;-72
2022/05/11 07:31:57;;;;;;;1.15;0.50;;;;;;;9.53;100.00;101921.75;4953011;29;20043;-72
2022/05/11 07:34:26;;;;;;;1.23;0.70;;;;;;;9.51;100.00;101919.88;4953039;28;20043;-73
2022/05/11 07:36:56;;;;;;;2.22;0.60;;;;;;;9.50;100.00;101923.25;4953237;29;20043;-73
2022/05/11 07:39:25;;;;;;;1.17;0.63;;;;;;;9.45;100.00;101930.78;4953150;29;20592;-72
2022/05/11 07:41:55;;;;;;;1.10;0.57;;;;;;;9.38;100.00;101924.38;4952680;29;20075;-72
2022/05/11 07:44:24;;;;;;;1.85;0.50;;;;;;;9.37;100.00;101932.97;4953142;29;20065;-72
2022/05/11 07:46:53;;;;;;;3.15;0.55;;;;;;;9.37;100.00;101937.25;4952824;29;20059;-73
2022/05/11 07:49:22;;;;;;;1.08;0.57;;;;;;;9.38;100.00;101934.72;4952958;29;20051;-71
2022/05/11 07:51:52;;;;;;;1.73;0.50;;;;;;;9.39;100.00;101941.69;4952670;29;20055;-73
2022/05/11 07:54:22;;;;;;;2.75;0.60;;;;;;;9.43;100.00;101932.38;4952875;29;20049;-73
2022/05/11 08:02:28;;;;;;;1.20;0.70;;;;;;;9.41;100.00;101939.16;4945253;28;20047;-73
2022/05/11 08:05:01;;;;;;;5.18;0.85;;;;;;;9.37;100.00;101932.97;4953567;28;20061;-73
2022/05/11 08:07:40;;;;;;;4.55;0.80;;;;;;;9.34;100.00;101935.34;4951831;28;20055;-73
2022/05/11 08:10:14;;;;;;;2.42;0.85;;;;;;;9.31;100.00;101940.38;4951730;29;20054;-72
2022/05/11 08:12:42;;;;;;;1.70;0.65;;;;;;;9.22;100.00;101938.19;4952471;29;20059;-73
2022/05/11 08:15:12;;;;;;;2.25;1.05;;;;;;;9.17;100.00;101931.88;4952230;29;20114;-73
2022/05/11 08:17:43;;;;;;;2.78;1.20;;;;;;;9.18;100.00;101935.34;4952372;29;20113;-73
2022/05/11 08:20:15;;;;;;;5.28;0.98;;;;;;;9.16;100.00;101931.78;4951890;29;20052;-73
2022/05/11 08:22:44;;;;;;;2.13;0.90;;;;;;;9.08;100.00;101925.34;4951707;29;20184;-74
2022/05/11 08:25:31;;;;;;;1.95;1.05;;;;;;;8.99;100.00;101931.75;4951889;29;20137;-73
2022/05/11 08:28:01;;;;;;;0.47;0.43;;;;;;;8.92;100.00;101934.81;4951553;29;20055;-73
2022/05/11 08:33:27;;;;;;;1.92;0.70;;;;;;;8.96;100.00;101923.88;4951899;29;20071;-73
2022/05/11 08:35:58;;;;;;;0.93;0.73;;;;;;;8.98;100.00;101926.53;4951869;29;20058;-73
2022/05/11 08:38:30;;;;;;;1.60;0.82;;;;;;;8.99;100.00;101931.75;4951907;29;20055;-73
2022/05/11 08:41:04;;;;;;;5.45;0.98;;;;;;;9.01;100.00;101929.28;4952036;29;20043;-73
2022/05/11 08:43:34;;;;;;;2.28;0.70;;;;;;;9.02;100.00;101933.63;4951728;29;20047;-72
2022/05/11 08:46:15;;;;;;;2.03;0.70;;;;;;;9.04;100.00;101925.97;4952056;29;20055;-72
2022/05/11 08:48:53;;;;;;;3.08;0.90;;;;;;;9.05;100.00;101938.06;4952139;29;20047;-73
2022/05/11 08:51:28;;;;;;;1.75;0.80;;;;;;;9.07;100.00;101933.88;4951947;29;20123;-74
2022/05/11 08:54:08;;;;;;;5.88;0.98;;;;;;;9.10;100.00;101936.63;4951370;29;20051;-73
2022/05/11 08:56:39;;;;;;;1.42;1.08;;;;;;;9.10;100.00;101931.47;4951573;29;20147;-72
2022/05/11 08:59:11;;;;;;;3.47;0.80;;;;;;;9.11;100.00;101933.25;4955252;29;20055;-73
2022/05/11 09:01:46;;;;;;;1.45;0.77;;;;;;;9.09;100.00;101935.72;4951932;29;20102;-73
2022/05/11 09:04:19;;;;;;;1.27;0.73;;;;;;;9.06;100.00;101932.09;4951977;29;20057;-72
2022/05/11 09:06:48;;;;;;;1.05;0.80;;;;;;;9.05;100.00;101922.56;4950891;28;20142;-72
2022/05/11 09:09:17;;;;;;;3.13;0.75;;;;;;;9.06;100.00;101926.94;4950992;29;20122;-73
2022/05/11 09:11:51;;;;;;;5.13;0.80;;;;;;;9.08;100.00;101922.75;4950751;29;20117;-72
2022/05/11 09:14:31;;;;;;;3.60;0.80;;;;;;;9.10;100.00;101932.34;4950674;28;20051;-73
2022/05/11 09:16:59;;;;;;;1.90;1.35;;;;;;;9.10;100.00;101932.34;4951255;29;20059;-74
2022/05/11 09:19:32;;;;;;;1.88;0.93;;;;;;;9.12;100.00;101935.03;4950701;29;20500;-73
2022/05/11 09:22:09;;;;;;;3.70;0.70;;;;;;;9.10;100.00;101936.63;4950543;29;20489;-73
2022/05/11 09:24:45;;;;;;;3.25;0.90;;;;;;;9.10;100.00;101939.22;4951018;29;20059;-73
2022/05/11 09:27:27;;;;;;;1.75;0.90;;;;;;;9.00;100.00;101923.22;4951271;29;20062;-73
2022/05/11 09:30:01;;;;;;;1.45;0.70;;;;;;;9.13;100.00;101941.97;4951010;29;20444;-73
2022/05/11 09:32:35;;;;;;;0.73;0.68;;;;;;;9.14;100.00;101933.41;4950439;29;20043;-73
2022/05/11 09:35:34;;;;;;;3.67;1.02;;;;;;;9.07;100.00;101937.38;4951064;28;20089;-73
2022/05/11 09:38:10;;;;;;;1.42;0.73;;;;;;;9.02;100.00;101933.63;4925493;29;20049;-72
2022/05/11 09:40:56;;;;;;;1.30;0.85;;;;;;;9.02;100.00;101939.69;4950913;29;20637;-73
2022/05/11 09:43:33;;;;;;;2.80;1.00;;;;;;;9.05;100.00;101932.91;4950539;29;20511;-73
2022/05/11 09:46:02;;;;;;;4.47;1.05;;;;;;;9.07;100.00;101936.44;4950981;29;20489;-73
2022/05/11 09:48:33;;;;;;;3.38;0.90;;;;;;;9.09;100.00;101940.88;4950901;29;20051;-74
2022/05/11 09:51:20;;;;;;;4.25;0.88;;;;;;;9.08;100.00;101935.66;4950768;29;20057;-73
2022/05/11 09:53:55;;;;;;;2.15;0.77;;;;;;;9.04;100.00;101931.13;4950801;29;20055;-73
2022/05/11 09:56:28;;;;;;;3.22;0.88;;;;;;;9.01;100.00;101929.28;4953641;29;20047;-73
2022/05/11 09:58:58;;;;;;;1.55;0.93;;;;;;;8.98;100.00;101937.75;4949923;29;20055;-73
2022/05/11 10:01:29;;;;;;;2.10;0.98;;;;;;;8.89;100.00;101932.09;4944087;29;20050;-73
2022/05/11 10:04:01;;;;;;;3.22;0.70;;;;;;;8.80;100.00;101937.63;4950236;29;20110;-73
2022/05/11 10:06:44;;;;;;;2.40;0.90;;;;;;;8.77;100.00;101941.72;4950433;28;20498;-73
2022/05/11 10:09:15;;;;;;;0.80;0.63;;;;;;;8.75;100.00;101938.16;4950493;29;20098;-73
2022/05/11 10:11:49;;;;;;;4.63;0.85;;;;;;;8.71;100.00;101949.13;4949767;29;20059;-73
2022/05/11 10:22:52;;;;;;;1.60;0.85;;;;;;;8.62;100.00;101941.75;4949987;29;20474;-73
2022/05/11 10:25:24;;;;;;;1.40;0.68;;;;;;;8.69;100.00;101943.00;4950601;28;20063;-73
2022/05/11 10:28:00;;;;;;;1.88;1.08;;;;;;;8.67;100.00;101947.16;4954070;29;20106;-73
2022/05/11 10:30:36;;;;;;;2.30;0.70;;;;;;;8.66;100.00;101942.78;4953997;29;20130;-74
2022/05/11 10:33:22;;;;;;;1.65;0.70;;;;;;;8.63;100.00;101933.19;4954031;29;20055;-73
2022/05/11 10:36:01;;;;;;;7.00;1.33;;;;;;;8.54;100.00;101928.44;4953455;28;20048;-73
2022/05/11 10:39:00;;;;;;;4.13;1.20;;;;;;;8.38;100.00;101928.31;4954096;29;20489;-73
2022/05/11 10:41:34;;;;;;;1.77;0.82;;;;;;;8.27;100.00;101927.72;4945975;29;20091;-73
2022/05/11 10:44:09;;;;;;;7.43;1.23;;;;;;;8.17;100.00;101931.41;4953829;29;20047;-73
2022/05/11 10:46:45;;;;;;;2.38;0.95;;;;;;;8.08;100.00;101920.56;4953309;29;20556;-73
2022/05/11 10:49:50;;;;;;;4.72;1.20;;;;;;;8.00;100.00;101927.00;4953995;28;20102;-74
2022/05/11 10:52:34;;;;;;;4.38;0.85;;;;;;;7.98;100.00;101928.59;4923677;29;20089;-73
2022/05/11 10:55:17;;;;;;;7.97;1.00;;;;;;;7.98;100.00;101928.59;4957429;29;20548;-73
2022/05/11 10:57:56;;;;;;;2.25;0.90;;;;;;;7.99;100.00;101925.19;4954143;28;20059;-74
2022/05/11 11:00:26;;;;;;;1.17;0.60;;;;;;;8.00;100.00;101923.53;4954106;28;20055;-74
2022/05/11 11:03:21;;;;;;;1.85;0.88;;;;;;;7.98;100.00;101929.47;4949725;28;20059;-73
2022/05/11 11:09:23;;;;;;;;;;;;;;;7.90;100.00;101924.66;4953747;29;20143;-72
2022/05/11 11:12:00;;;;;;;1.38;1.10;;;;;;;7.83;100.00;101925.97;4952888;29;19981;-73
2022/05/11 11:14:33;;;;;;;1.50;0.88;;;;;;;7.78;100.00;101926.53;4953651;29;20090;-73
2022/05/11 11:17:04;;;;;;;1.10;0.95;;;;;;;7.71;100.00;101923.56;4953235;29;20047;-72
2022/05/11 11:19:35;;;;;;;1.58;0.93;;;;;;;7.65;100.00;101928.38;4952970;29;20704;-72
2022/05/11 11:22:07;;;;;;;7.03;0.90;;;;;;;7.67;100.00;101936.16;4952906;29;20055;-73
2022/05/11 11:24:36;;;;;;;0.93;0.70;;;;;;;7.69;100.00;101937.16;4952856;29;20086;-73
2022/05/11 11:27:06;;;;;;;2.83;0.73;;;;;;;7.68;100.00;101938.84;4952638;29;20051;-73
2022/05/11 11:29:36;;;;;;;1.88;0.80;;;;;;;7.71;100.00;101939.03;4953137;29;20087;-74
2022/05/11 11:32:19;;;;;;;2.33;1.02;;;;;;;7.72;100.00;101939.94;4952640;29;20106;-73
2022/05/11 11:34:52;;;;;;;4.38;0.80;;;;;;;7.73;100.00;101942.59;4952579;29;20528;-73
2022/05/11 11:37:59;;;;;;;1.35;0.47;;;;;;;7.74;100.00;101948.63;4952606;28;20070;-73
2022/05/11 11:40:37;;;;;;;1.23;0.70;;;;;;;7.72;100.00;101939.94;4952635;29;20079;-73
2022/05/11 11:43:42;;;;;;;3.63;0.70;;;;;;;7.71;100.00;101928.72;4952440;29;20057;-72
2022/05/11 11:46:10;;;;;;;2.17;0.75;;;;;;;7.70;100.00;101932.09;4952335;29;20130;-74
2022/05/11 11:48:41;;;;;;;1.63;0.75;;;;;;;7.69;100.00;101925.16;4952236;29;20055;-73
2022/05/11 11:51:34;;;;;;;1.85;0.98;;;;;;;7.67;100.00;101921.63;4952988;29;20099;-73
2022/05/11 11:54:02;;;;;;;;;;;;;;;7.66;100.00;101916.38;4956901;29;20115;-73
2022/05/11 11:56:52;;;;;;;1.75;1.00;;;;;;;7.60;100.00;101909.16;4953277;29;19922;-72
2022/05/11 11:59:42;;;;;;;4.22;1.23;;;;;;;7.57;100.00;101916.72;4952162;29;20061;-73
2022/05/11 12:02:20;;;;;;;1.92;0.80;;;;;;;7.55;100.00;101915.72;4952255;29;20481;-73
2022/05/11 12:05:01;;;;;;;1.90;0.85;;;;;;;7.51;100.00;101919.81;4952344;29;20051;-72
2022/05/11 12:16:21;;;;;;;1.88;1.02;;;;;;;7.38;100.00;101924.13;4952555;29;20111;-73
2022/05/11 12:18:49;;;;;;;1.70;0.82;;;;;;;7.36;100.00;101926.59;4951992;29;20106;-73
2022/05/11 12:21:28;;;;;;;4.07;0.73;;;;;;;7.36;100.00;101920.56;4952088;29;20083;-73
2022/05/11 12:24:01;;;;;;;5.43;0.80;;;;;;;7.36;100.00;101915.41;4952400;29;20055;-74
2022/05/11 12:26:33;;;;;;;2.22;0.82;;;;;;;7.35;100.00;101917.06;4951940;29;20055;-73
2022/05/11 12:31:53;;;;;;;2.95;0.80;;;;;;;7.23;100.00;101926.63;4951194;29;20058;-73
2022/05/11 12:34:24;;;;;;;1.05;0.70;;;;;;;7.20;100.00;101921.31;4951735;29;20058;-74
2022/05/11 12:36:53;;;;;;;2.65;1.35;;;;;;;7.16;100.00;101914.19;4951250;29;20051;-74
2022/05/11 12:39:35;;;;;;;1.90;0.75;;;;;;;7.12;100.00;101923.38;4951516;29;20150;-73